createdAt,value
2022-09-25T00:00:58.879Z,60.26
2022-09-25T00:03:25.450Z,60.29
2022-09-25T00:05:51.802Z,60.23
2022-09-25T00:08:18.397Z,60.34
2022-09-25T00:10:44.827Z,60.39
2022-09-25T00:13:11.239Z,60.61
2022-09-25T00:15:38.044Z,60.50
2022-09-25T00:18:04.472Z,60.57
2022-09-25T00:20:30.892Z,60.48
2022-09-25T00:22:57.218Z,60.71
2022-09-25T00:25:23.533Z,60.31
2022-09-25T00:27:50.034Z,60.70
2022-09-25T00:30:16.526Z,60.40
2022-09-25T00:32:42.910Z,60.57
2022-09-25T00:35:09.641Z,60.72
2022-09-25T00:37:36.170Z,60.41
2022-09-25T00:40:02.863Z,60.25
2022-09-25T00:42:29.263Z,60.45
2022-09-25T00:44:55.606Z,60.50
2022-09-25T00:47:21.988Z,60.67
2022-09-25T00:49:48.364Z,60.34
2022-09-25T00:52:14.891Z,60.63
2022-09-25T00:54:41.169Z,60.51
2022-09-25T00:57:07.634Z,60.42
2022-09-25T00:59:33.966Z,60.66
2022-09-25T01:02:00.426Z,60.57
2022-09-25T01:04:27.777Z,60.76
2022-09-25T01:06:55.680Z,60.44
2022-09-25T01:09:22.136Z,60.62
2022-09-25T01:11:48.534Z,60.64
2022-09-25T01:14:16.258Z,60.87
2022-09-25T01:16:42.612Z,60.36
2022-09-25T01:19:09.065Z,60.64
2022-09-25T01:21:35.675Z,60.47
2022-09-25T01:24:02.275Z,60.41
2022-09-25T01:26:28.584Z,60.44
2022-09-25T01:28:54.955Z,60.45
2022-09-25T01:31:21.411Z,60.48
2022-09-25T01:33:47.699Z,60.68
2022-09-25T01:36:14.029Z,60.69
2022-09-25T01:38:40.396Z,60.22
2022-09-25T01:41:06.766Z,60.38
2022-09-25T01:43:33.077Z,60.32
2022-09-25T01:45:59.543Z,60.52
2022-09-25T01:48:25.953Z,60.45
2022-09-25T01:50:52.383Z,60.84
2022-09-25T01:53:19.026Z,60.32
2022-09-25T01:55:45.377Z,60.46
2022-09-25T01:58:11.966Z,60.30
2022-09-25T02:00:38.418Z,60.68
2022-09-25T02:03:04.901Z,60.58
2022-09-25T02:05:31.174Z,60.63
2022-09-25T02:07:57.731Z,60.47
2022-09-25T02:10:24.240Z,60.50
2022-09-25T02:12:50.633Z,60.36
2022-09-25T02:15:17.012Z,60.53
2022-09-25T02:17:46.362Z,60.62
2022-09-25T02:20:12.680Z,60.67
2022-09-25T02:22:39.303Z,60.75
2022-09-25T02:25:05.555Z,60.50
2022-09-25T02:27:32.279Z,60.96
2022-09-25T02:29:58.608Z,60.50
2022-09-25T02:32:25.070Z,60.77
2022-09-25T02:34:51.514Z,60.74
2022-09-25T02:37:18.163Z,60.78
2022-09-25T02:39:44.527Z,60.55
2022-09-25T02:42:10.821Z,60.49
2022-09-25T02:44:37.166Z,60.57
2022-09-25T02:47:03.478Z,60.36
2022-09-25T02:49:29.868Z,60.67
2022-09-25T02:51:56.369Z,60.70
2022-09-25T02:54:23.420Z,60.54
2022-09-25T02:56:49.774Z,60.67
2022-09-25T02:59:16.056Z,60.42
2022-09-25T03:01:42.500Z,60.39
2022-09-25T03:04:10.433Z,60.43
2022-09-25T03:06:37.478Z,60.74
2022-09-25T03:09:03.925Z,60.44
2022-09-25T03:11:30.273Z,60.70
2022-09-25T03:13:56.557Z,60.69
2022-09-25T03:16:23.093Z,60.77
2022-09-25T03:18:49.549Z,60.57
2022-09-25T03:21:15.914Z,60.73
2022-09-25T03:23:42.421Z,60.65
2022-09-25T03:26:08.766Z,60.69
2022-09-25T03:28:35.388Z,60.75
2022-09-25T03:31:01.720Z,60.51
2022-09-25T03:33:28.157Z,60.36
2022-09-25T03:35:54.461Z,60.57
2022-09-25T03:38:20.705Z,60.68
2022-09-25T03:40:47.025Z,60.44
2022-09-25T03:45:38.989Z,60.39
2022-09-25T03:48:05.448Z,60.35
2022-09-25T03:50:31.780Z,60.45
2022-09-25T03:52:58.130Z,60.52
2022-09-25T03:55:27.602Z,60.55
2022-09-25T03:57:54.975Z,60.29
2022-09-25T04:00:21.373Z,60.62
2022-09-25T04:02:47.797Z,60.69
2022-09-25T04:05:14.299Z,60.76
2022-09-25T04:07:40.618Z,60.60
2022-09-25T04:10:06.841Z,60.35
2022-09-25T04:12:33.227Z,60.67
2022-09-25T04:15:01.646Z,60.41
2022-09-25T04:17:28.455Z,60.71
2022-09-25T04:19:54.765Z,60.74
2022-09-25T04:22:21.187Z,60.44
2022-09-25T04:24:47.676Z,60.71
2022-09-25T04:27:14.113Z,60.40
2022-09-25T04:29:40.510Z,60.79
2022-09-25T04:32:06.920Z,60.66
2022-09-25T04:34:33.212Z,60.41
2022-09-25T04:36:59.618Z,60.70
2022-09-25T04:39:25.905Z,60.41
2022-09-25T04:41:52.174Z,60.48
2022-09-25T04:44:18.456Z,60.42
2022-09-25T04:46:44.847Z,60.36
2022-09-25T04:49:11.139Z,60.69
2022-09-25T04:51:37.566Z,60.86
2022-09-25T04:54:04.098Z,60.73
2022-09-25T04:56:30.550Z,60.63
2022-09-25T04:58:56.850Z,60.43
2022-09-25T05:01:23.418Z,60.64
2022-09-25T05:03:50.701Z,60.46
2022-09-25T05:06:17.255Z,60.77
2022-09-25T05:08:43.890Z,60.79
2022-09-25T05:11:10.221Z,60.50
2022-09-25T05:13:36.498Z,60.42
2022-09-25T05:16:02.843Z,60.65
2022-09-25T05:18:29.201Z,60.56
2022-09-25T05:20:55.472Z,60.76
2022-09-25T05:23:21.969Z,60.67
2022-09-25T05:25:48.543Z,60.66
2022-09-25T05:28:14.931Z,60.29
2022-09-25T05:30:41.675Z,60.37
2022-09-25T05:33:09.158Z,60.79
2022-09-25T05:35:36.882Z,60.68
2022-09-25T05:38:03.242Z,60.74
2022-09-25T05:40:29.699Z,60.49
2022-09-25T05:42:56.061Z,60.62
2022-09-25T05:45:22.391Z,60.45
2022-09-25T05:47:48.798Z,60.44
2022-09-25T05:50:15.514Z,60.55
2022-09-25T05:52:41.864Z,60.73
2022-09-25T05:55:08.303Z,60.70
2022-09-25T05:57:36.911Z,60.26
2022-09-25T06:00:03.262Z,60.51
2022-09-25T06:02:29.907Z,60.49
2022-09-25T06:04:56.317Z,61.01
2022-09-25T06:07:22.665Z,60.83
2022-09-25T06:09:48.991Z,60.60
2022-09-25T06:12:15.270Z,60.72
2022-09-25T06:14:41.633Z,60.62
2022-09-25T06:17:07.893Z,60.61
2022-09-25T06:19:34.246Z,60.59
2022-09-25T06:22:00.556Z,60.74
2022-09-25T06:24:27.084Z,60.88
2022-09-25T06:26:53.342Z,60.98
2022-09-25T06:29:20.080Z,61.00
2022-09-25T06:31:46.483Z,61.04
2022-09-25T06:34:12.839Z,60.47
2022-09-25T06:36:39.220Z,60.96
2022-09-25T06:39:05.572Z,60.86
2022-09-25T06:41:31.848Z,60.75
2022-09-25T06:43:59.272Z,60.84
2022-09-25T06:46:25.770Z,60.92
2022-09-25T06:48:52.431Z,60.83
2022-09-25T06:51:19.896Z,60.99
2022-09-25T06:53:46.141Z,60.82
2022-09-25T06:56:12.471Z,60.70
2022-09-25T06:58:39.107Z,61.04
2022-09-25T07:01:09.731Z,61.05
2022-09-25T07:03:36.131Z,60.27
2022-09-25T07:06:02.425Z,60.67
2022-09-25T07:08:28.759Z,61.08
2022-09-25T07:10:55.010Z,60.84
2022-09-25T07:13:21.366Z,60.96
2022-09-25T07:15:47.735Z,60.87
2022-09-25T07:18:14.114Z,61.17
2022-09-25T07:20:40.806Z,61.05
2022-09-25T07:23:07.132Z,61.04
2022-09-25T07:25:33.465Z,61.20
2022-09-25T07:28:00.714Z,61.10
2022-09-25T07:30:27.050Z,61.40
2022-09-25T07:32:59.213Z,61.19
2022-09-25T07:35:28.480Z,61.48
2022-09-25T07:37:54.814Z,61.29
2022-09-25T07:40:22.118Z,61.54
2022-09-25T07:42:48.568Z,61.54
2022-09-25T07:45:14.820Z,61.40
2022-09-25T07:47:41.357Z,61.71
2022-09-25T07:50:10.887Z,61.70
2022-09-25T07:52:40.069Z,61.46
2022-09-25T07:55:06.774Z,62.04
2022-09-25T07:57:33.082Z,61.56
2022-09-25T07:59:59.429Z,61.88
2022-09-25T08:02:25.787Z,61.56
2022-09-25T08:04:52.334Z,61.89
2022-09-25T08:07:18.573Z,61.70
2022-09-25T08:09:44.866Z,61.95
2022-09-25T08:12:11.356Z,61.69
2022-09-25T08:14:37.635Z,61.95
2022-09-25T08:17:03.899Z,61.94
2022-09-25T08:19:30.716Z,61.93
2022-09-25T08:21:57.042Z,62.00
2022-09-25T08:24:23.576Z,61.81
2022-09-25T08:26:49.890Z,61.88
2022-09-25T08:29:16.157Z,62.16
2022-09-25T08:31:42.433Z,62.29
2022-09-25T08:34:35.902Z,61.93
2022-09-25T08:36:55.018Z,62.07
2022-09-25T08:39:21.406Z,62.05
2022-09-25T08:44:23.042Z,62.34
2022-09-25T08:46:49.504Z,62.43
2022-09-25T08:49:15.787Z,62.02
2022-09-25T08:51:42.342Z,61.94
2022-09-25T08:54:09.339Z,61.96
2022-09-25T08:56:35.770Z,62.08
2022-09-25T08:59:02.150Z,62.00
2022-09-25T09:01:28.578Z,62.26
2022-09-25T09:03:55.619Z,62.28
2022-09-25T09:06:22.184Z,62.18
2022-09-25T09:08:48.481Z,61.85
2022-09-25T09:11:14.820Z,62.05
2022-09-25T09:13:41.296Z,61.97
2022-09-25T09:16:07.667Z,62.04
2022-09-25T09:18:33.973Z,62.28
2022-09-25T09:21:00.295Z,62.23
2022-09-25T09:23:26.776Z,62.25
2022-09-25T09:25:53.242Z,62.02
2022-09-25T09:28:19.588Z,61.96
2022-09-25T09:30:45.986Z,62.46
2022-09-25T09:33:12.631Z,61.97
2022-09-25T09:35:39.145Z,62.01
2022-09-25T09:38:05.613Z,62.24
2022-09-25T09:40:32.195Z,62.47
2022-09-25T09:42:58.654Z,62.27
2022-09-25T09:45:25.209Z,62.33
2022-09-25T09:47:51.697Z,62.40
2022-09-25T09:50:18.523Z,62.18
2022-09-25T09:52:44.871Z,62.06
2022-09-25T09:55:11.440Z,62.17
2022-09-25T09:57:37.803Z,62.05
2022-09-25T10:00:05.529Z,62.36
2022-09-25T10:02:32.258Z,62.38
2022-09-25T10:04:58.666Z,62.09
2022-09-25T10:07:24.963Z,62.31
2022-09-25T10:09:51.237Z,62.11
2022-09-25T10:12:17.597Z,62.28
2022-09-25T10:14:43.841Z,62.14
2022-09-25T10:17:10.343Z,61.95
2022-09-25T10:19:36.687Z,62.15
2022-09-25T10:22:03.120Z,62.04
2022-09-25T10:24:29.355Z,61.46
2022-09-25T10:26:55.859Z,61.63
2022-09-25T10:29:22.279Z,61.68
2022-09-25T10:31:48.806Z,61.31
2022-09-25T10:34:16.009Z,61.52
2022-09-25T10:36:42.464Z,61.79
2022-09-25T10:39:42.390Z,61.65
2022-09-25T10:41:57.271Z,61.80
2022-09-25T10:44:23.676Z,61.82
2022-09-25T10:46:50.138Z,62.02
2022-09-25T10:49:16.417Z,62.20
2022-09-25T10:51:42.719Z,61.95
2022-09-25T10:54:08.999Z,61.82
2022-09-25T10:56:35.271Z,62.16
2022-09-25T10:59:01.713Z,62.25
2022-09-25T11:01:29.152Z,62.46
2022-09-25T11:03:55.893Z,62.40
2022-09-25T11:06:22.207Z,62.00
2022-09-25T11:08:48.584Z,62.41
2022-09-25T11:11:14.920Z,62.09
2022-09-25T11:13:41.265Z,62.19
2022-09-25T11:16:07.827Z,62.15
2022-09-25T11:18:34.175Z,61.72
2022-09-25T11:21:00.449Z,62.13
2022-09-25T11:23:27.237Z,61.98
2022-09-25T11:25:53.800Z,61.95
2022-09-25T11:28:20.360Z,62.04
2022-09-25T11:30:46.725Z,61.54
2022-09-25T11:33:13.063Z,61.03
2022-09-25T11:35:39.429Z,60.57
2022-09-25T11:38:06.331Z,59.84
2022-09-25T11:40:32.990Z,59.39
2022-09-25T11:42:59.407Z,59.93
2022-09-25T11:45:26.056Z,59.14
2022-09-25T11:47:52.411Z,59.36
2022-09-25T11:50:18.886Z,58.92
2022-09-25T11:52:45.578Z,59.24
2022-09-25T11:55:11.858Z,59.37
2022-09-25T11:57:38.195Z,58.67
2022-09-25T12:00:04.510Z,58.83
2022-09-25T12:02:30.851Z,58.80
2022-09-25T12:04:57.361Z,58.93
2022-09-25T12:07:23.766Z,59.21
2022-09-25T12:09:51.583Z,58.89
2022-09-25T12:12:18.183Z,58.69
2022-09-25T12:14:44.813Z,58.70
2022-09-25T12:17:11.218Z,58.74
2022-09-25T12:19:38.251Z,58.33
2022-09-25T12:22:04.536Z,58.86
2022-09-25T12:24:33.108Z,58.90
2022-09-25T12:26:59.586Z,58.97
2022-09-25T12:29:25.948Z,59.03
2022-09-25T12:31:52.198Z,58.90
2022-09-25T12:34:18.943Z,59.36
2022-09-25T12:36:45.337Z,59.19
2022-09-25T12:39:11.590Z,59.39
2022-09-25T12:41:37.865Z,58.83
2022-09-25T12:44:04.234Z,59.15
2022-09-25T12:46:30.513Z,58.76
2022-09-25T12:48:56.807Z,58.49
2022-09-25T12:51:23.471Z,58.85
2022-09-25T12:53:49.889Z,58.85
2022-09-25T12:56:16.364Z,58.93
2022-09-25T12:58:42.715Z,58.65
2022-09-25T13:01:08.989Z,58.72
2022-09-25T13:03:35.485Z,59.23
2022-09-25T13:06:02.269Z,58.76
2022-09-25T13:08:29.522Z,59.04
2022-09-25T13:10:55.886Z,59.29
2022-09-25T13:13:22.266Z,59.41
2022-09-25T13:15:48.878Z,59.25
2022-09-25T13:18:15.207Z,59.23
2022-09-25T13:20:41.637Z,59.43
2022-09-25T13:23:07.940Z,59.48
2022-09-25T13:25:34.522Z,59.53
2022-09-25T13:28:00.998Z,59.23
2022-09-25T13:30:27.267Z,59.36
2022-09-25T13:32:53.696Z,59.64
2022-09-25T13:35:20.184Z,59.83
2022-09-25T13:37:46.580Z,59.54
2022-09-25T13:40:13.476Z,59.61
2022-09-25T13:42:39.930Z,59.76
2022-09-25T13:45:06.274Z,59.72
2022-09-25T13:47:32.830Z,59.87
2022-09-25T13:49:59.283Z,59.70
2022-09-25T13:52:25.957Z,60.07
2022-09-25T13:54:52.311Z,59.80
2022-09-25T13:57:18.636Z,60.17
2022-09-25T13:59:44.998Z,59.74
2022-09-25T14:02:11.629Z,59.91
2022-09-25T14:04:38.338Z,60.01
2022-09-25T14:07:04.785Z,60.14
2022-09-25T14:09:31.115Z,60.00
2022-09-25T14:11:57.579Z,59.85
2022-09-25T14:14:23.987Z,59.99
2022-09-25T14:16:50.241Z,60.08
2022-09-25T14:19:16.962Z,60.33
2022-09-25T14:21:44.040Z,59.82
2022-09-25T14:24:10.553Z,60.44
2022-09-25T14:26:37.117Z,60.44
2022-09-25T14:29:03.459Z,60.47
2022-09-25T14:31:30.058Z,60.24
2022-09-25T14:33:56.492Z,60.38
2022-09-25T14:36:22.779Z,60.16
2022-09-25T14:38:49.119Z,60.20
2022-09-25T14:41:15.431Z,60.30
2022-09-25T14:43:41.961Z,60.28
2022-09-25T14:46:10.372Z,60.42
2022-09-25T14:48:39.134Z,60.34
2022-09-25T14:51:05.529Z,60.28
2022-09-25T14:53:32.095Z,60.33
2022-09-25T14:55:58.538Z,60.58
2022-09-25T14:58:24.849Z,60.47
2022-09-25T15:00:51.174Z,60.45
2022-09-25T15:03:18.973Z,60.69
2022-09-25T15:05:45.257Z,60.80
2022-09-25T15:08:11.668Z,60.38
2022-09-25T15:10:37.909Z,60.80
2022-09-25T15:13:04.265Z,60.51
2022-09-25T15:15:30.527Z,60.64
2022-09-25T15:17:56.767Z,60.62
2022-09-25T15:20:23.274Z,60.55
2022-09-25T15:22:49.605Z,60.56
2022-09-25T15:25:15.885Z,60.61
2022-09-25T15:27:42.162Z,60.63
2022-09-25T15:30:08.509Z,60.71
2022-09-25T15:32:34.822Z,60.73
2022-09-25T15:35:01.567Z,60.96
2022-09-25T15:37:28.130Z,61.10
2022-09-25T15:39:54.632Z,61.13
2022-09-25T15:42:20.990Z,60.95
2022-09-25T15:44:47.696Z,60.80
2022-09-25T15:47:14.084Z,61.10
2022-09-25T15:49:41.323Z,61.17
2022-09-25T15:52:07.680Z,61.20
2022-09-25T15:54:34.226Z,61.13
2022-09-25T15:57:01.883Z,61.27
2022-09-25T15:59:29.102Z,60.98
2022-09-25T16:01:58.905Z,60.83
2022-09-25T16:04:26.482Z,60.89
2022-09-25T16:06:53.928Z,61.00
2022-09-25T16:09:22.439Z,61.22
2022-09-25T16:11:51.545Z,61.26
2022-09-25T16:14:17.955Z,61.02
2022-09-25T16:16:44.470Z,61.13
2022-09-25T16:19:10.967Z,61.23
2022-09-25T16:21:37.425Z,60.93
2022-09-25T16:24:04.510Z,61.27
2022-09-25T16:26:31.084Z,61.14
2022-09-25T16:28:57.472Z,60.97
2022-09-25T16:31:24.095Z,60.87
2022-09-25T16:33:50.479Z,61.22
2022-09-25T16:36:18.014Z,61.30
2022-09-25T16:38:44.699Z,60.96
2022-09-25T16:41:10.971Z,61.15
2022-09-25T16:43:37.360Z,60.97
2022-09-25T16:46:03.698Z,61.17
2022-09-25T16:48:30.048Z,61.06
2022-09-25T16:50:56.349Z,60.90
2022-09-25T16:53:22.682Z,61.02
2022-09-25T16:55:48.960Z,61.13
2022-09-25T16:58:15.238Z,61.00
2022-09-25T17:00:41.653Z,61.00
2022-09-25T17:03:07.979Z,61.53
2022-09-25T17:05:34.324Z,61.16
2022-09-25T17:08:01.022Z,61.52
2022-09-25T17:10:27.474Z,61.14
2022-09-25T17:12:54.194Z,61.33
2022-09-25T17:15:20.638Z,61.04
2022-09-25T17:17:47.055Z,61.00
2022-09-25T17:20:13.286Z,61.02
2022-09-25T17:22:39.603Z,61.22
2022-09-25T17:25:06.046Z,61.37
2022-09-25T17:27:32.539Z,61.47
2022-09-25T17:29:58.933Z,61.35
2022-09-25T17:32:25.648Z,61.43
2022-09-25T17:34:53.274Z,61.09
2022-09-25T17:37:19.730Z,61.61
2022-09-25T17:39:46.349Z,61.65
2022-09-25T17:42:12.705Z,61.12
2022-09-25T17:44:38.997Z,61.28
2022-09-25T17:47:05.307Z,61.29
2022-09-25T17:49:31.591Z,61.57
2022-09-25T17:51:57.883Z,61.61
2022-09-25T17:54:24.175Z,61.53
2022-09-25T17:56:50.691Z,61.18
2022-09-25T17:59:17.201Z,61.34
2022-09-25T18:01:43.921Z,61.31
2022-09-25T18:04:10.524Z,61.50
2022-09-25T18:06:36.787Z,61.53
2022-09-25T18:09:03.191Z,61.62
2022-09-25T18:11:29.465Z,61.27
2022-09-25T18:13:55.948Z,61.33
2022-09-25T18:16:22.345Z,61.63
2022-09-25T18:18:48.649Z,61.36
2022-09-25T18:21:15.073Z,61.33
2022-09-25T18:23:41.418Z,61.42
2022-09-25T18:26:07.891Z,61.27
2022-09-25T18:28:34.291Z,61.57
2022-09-25T18:31:00.831Z,61.36
2022-09-25T18:33:27.173Z,61.81
2022-09-25T18:35:53.544Z,61.39
2022-09-25T18:38:19.810Z,61.42
2022-09-25T18:40:46.200Z,61.53
2022-09-25T18:43:12.735Z,61.50
2022-09-25T18:45:38.998Z,61.66
2022-09-25T18:48:05.277Z,61.60
2022-09-25T18:50:31.610Z,61.51
2022-09-25T18:52:57.992Z,61.60
2022-09-25T18:55:24.266Z,61.73
2022-09-25T18:57:50.659Z,61.66
2022-09-25T19:00:17.003Z,61.78
2022-09-25T19:02:43.756Z,61.53
2022-09-25T19:05:11.107Z,61.44
2022-09-25T19:07:37.678Z,61.86
2022-09-25T19:10:04.139Z,61.74
2022-09-25T19:12:30.482Z,61.75
2022-09-25T19:14:56.873Z,61.63
2022-09-25T19:17:23.448Z,61.65
2022-09-25T19:19:49.689Z,61.83
2022-09-25T19:22:16.260Z,61.72
2022-09-25T19:24:42.791Z,61.65
2022-09-25T19:27:09.143Z,61.44
2022-09-25T19:29:35.633Z,61.62
2022-09-25T19:32:03.076Z,61.65
2022-09-25T19:34:29.301Z,61.55
2022-09-25T19:36:55.821Z,61.95
2022-09-25T19:39:22.249Z,61.58
2022-09-25T19:41:48.583Z,61.73
2022-09-25T19:44:14.885Z,61.62
2022-09-25T19:46:41.539Z,61.85
2022-09-25T19:49:08.015Z,61.85
2022-09-25T19:51:34.617Z,61.95
2022-09-25T19:54:00.873Z,61.57
2022-09-25T19:56:27.326Z,62.01
2022-09-25T19:58:53.646Z,62.13
2022-09-25T20:01:19.972Z,61.63
2022-09-25T20:03:46.306Z,61.79
2022-09-25T20:06:12.803Z,61.83
2022-09-25T20:08:39.200Z,61.98
2022-09-25T20:11:05.606Z,61.65
2022-09-25T20:13:31.893Z,62.04
2022-09-25T20:15:58.263Z,61.71
2022-09-25T20:18:24.805Z,61.60
2022-09-25T20:20:51.086Z,61.68
2022-09-25T20:23:17.532Z,62.02
2022-09-25T20:25:43.949Z,62.11
2022-09-25T20:28:10.293Z,61.81
2022-09-25T20:30:36.572Z,61.95
2022-09-25T20:33:02.949Z,61.74
2022-09-25T20:35:29.279Z,61.86
2022-09-25T20:37:55.898Z,62.00
2022-09-25T20:40:22.413Z,61.74
2022-09-25T20:42:48.738Z,61.73
2022-09-25T20:45:15.094Z,61.80
2022-09-25T20:47:46.015Z,61.97
2022-09-25T20:50:12.746Z,62.08
2022-09-25T20:52:39.449Z,61.87
2022-09-25T20:55:06.032Z,61.72
2022-09-25T20:57:32.394Z,62.13
2022-09-25T20:59:58.799Z,61.71
2022-09-25T21:02:25.393Z,61.84
2022-09-25T21:04:51.767Z,62.04
2022-09-25T21:07:18.083Z,61.92
2022-09-25T21:09:44.430Z,61.89
2022-09-25T21:12:10.705Z,61.94
2022-09-25T21:14:37.068Z,62.18
2022-09-25T21:17:03.499Z,61.77
2022-09-25T21:19:30.034Z,62.02
2022-09-25T21:21:56.485Z,61.84
2022-09-25T21:24:22.824Z,61.89
2022-09-25T21:26:49.111Z,62.20
2022-09-25T21:29:15.458Z,62.24
2022-09-25T21:31:46.596Z,61.94
2022-09-25T21:34:15.611Z,61.77
2022-09-25T21:36:42.027Z,61.92
2022-09-25T21:39:08.353Z,61.97
2022-09-25T21:41:34.710Z,61.90
2022-09-25T21:44:01.229Z,62.40
2022-09-25T21:46:27.570Z,61.92
2022-09-25T21:48:54.245Z,62.07
2022-09-25T21:51:20.736Z,62.23
2022-09-25T21:53:47.014Z,62.33
2022-09-25T21:56:13.281Z,62.25
2022-09-25T21:58:39.718Z,62.27
2022-09-25T22:01:06.137Z,62.00
2022-09-25T22:03:32.755Z,62.02
2022-09-25T22:05:59.307Z,62.37
2022-09-25T22:08:27.279Z,62.25
2022-09-25T22:10:53.636Z,62.09
2022-09-25T22:13:19.914Z,62.08
2022-09-25T22:15:46.266Z,62.00
2022-09-25T22:18:12.679Z,62.51
2022-09-25T22:20:38.945Z,62.34
2022-09-25T22:23:05.310Z,62.39
2022-09-25T22:25:31.657Z,62.15
2022-09-25T22:27:58.489Z,62.45
2022-09-25T22:30:24.841Z,62.33
2022-09-25T22:32:51.140Z,62.38
2022-09-25T22:35:17.427Z,62.51
2022-09-25T22:37:43.952Z,62.36
2022-09-25T22:40:10.368Z,61.98
2022-09-25T22:42:36.761Z,62.40
2022-09-25T22:45:03.293Z,62.13
2022-09-25T22:47:29.781Z,62.29
2022-09-25T22:49:56.054Z,62.21
2022-09-25T22:52:22.386Z,62.36
2022-09-25T22:54:48.832Z,62.32
2022-09-25T22:57:15.113Z,62.42
2022-09-25T22:59:41.417Z,62.34
2022-09-25T23:02:07.897Z,62.36
2022-09-25T23:04:34.957Z,62.36
2022-09-25T23:07:01.288Z,62.17
2022-09-25T23:09:27.579Z,62.38
2022-09-25T23:11:53.876Z,62.14
2022-09-25T23:14:20.264Z,62.37
2022-09-25T23:16:46.645Z,62.00
2022-09-25T23:19:13.119Z,62.04
2022-09-25T23:21:39.710Z,62.17
2022-09-25T23:24:06.016Z,62.03
2022-09-25T23:26:32.372Z,62.40
2022-09-25T23:28:58.663Z,62.51
2022-09-25T23:31:24.962Z,62.04
2022-09-25T23:33:51.302Z,62.17
2022-09-25T23:36:17.671Z,61.93
2022-09-25T23:38:44.018Z,62.26
2022-09-25T23:41:10.282Z,62.40
2022-09-25T23:43:36.619Z,62.22
2022-09-25T23:46:03.224Z,62.22
2022-09-25T23:48:29.513Z,62.34
2022-09-25T23:50:55.760Z,62.18
2022-09-25T23:53:22.197Z,62.05
2022-09-25T23:55:48.477Z,62.25
2022-09-25T23:58:14.781Z,62.50
